createdAt,value
2019-06-10T00:01:11.916Z,2.67
2019-06-10T00:06:15.633Z,2.57
2019-06-10T00:11:21.326Z,2.40
2019-06-10T00:16:24.583Z,2.97
2019-06-10T00:21:30.674Z,2.50
2019-06-10T00:26:33.696Z,2.47
2019-06-10T00:31:37.416Z,2.63
2019-06-10T00:36:41.464Z,2.60
2019-06-10T00:41:45.403Z,2.60
2019-06-10T00:46:51.412Z,2.77
2019-06-10T00:51:54.658Z,2.40
2019-06-10T00:57:00.550Z,2.30
2019-06-10T01:02:05.005Z,2.80
2019-06-10T01:07:11.292Z,2.47
2019-06-10T01:12:14.930Z,2.70
2019-06-10T01:17:21.187Z,2.70
2019-06-10T01:22:24.468Z,2.40
2019-06-10T01:27:28.181Z,2.57
2019-06-10T01:32:31.834Z,2.37
2019-06-10T01:37:35.533Z,2.60
2019-06-10T01:42:41.255Z,1.83
2019-06-10T01:47:44.603Z,2.83
2019-06-10T01:52:48.469Z,2.43
2019-06-10T01:57:52.111Z,2.27
2019-06-10T02:02:55.783Z,2.70
2019-06-10T02:08:00.592Z,2.43
2019-06-10T02:13:04.433Z,2.70
2019-06-10T02:18:10.738Z,2.60
2019-06-10T02:23:14.547Z,2.80
2019-06-10T02:28:19.731Z,2.70
2019-06-10T02:33:30.908Z,2.80
2019-06-10T02:38:37.920Z,2.60
2019-06-10T02:43:37.808Z,3.10
2019-06-10T02:48:43.614Z,2.80
2019-06-10T02:53:47.483Z,3.10
2019-06-10T02:58:53.459Z,2.97
2019-06-10T03:03:56.506Z,2.80
2019-06-10T03:09:03.438Z,3.20
2019-06-10T03:14:05.674Z,3.60
2019-06-10T03:19:09.302Z,3.30
2019-06-10T03:24:13.263Z,2.50
2019-06-10T03:29:17.077Z,3.03
2019-06-10T03:34:29.791Z,3.07
2019-06-10T03:39:28.413Z,3.37
2019-06-10T03:44:33.060Z,3.33
2019-06-10T03:49:49.060Z,2.67
2019-06-10T03:54:43.286Z,3.37
2019-06-10T03:59:47.317Z,2.60
2019-06-10T04:04:52.361Z,3.10
2019-06-10T04:09:56.484Z,3.60
2019-06-10T04:15:02.872Z,4.43
2019-06-10T04:20:11.686Z,3.67
2019-06-10T04:25:12.134Z,3.43
2019-06-10T04:30:16.698Z,3.03
2019-06-10T04:35:23.058Z,3.37
2019-06-10T04:40:27.531Z,3.57
2019-06-10T04:45:32.436Z,3.83
2019-06-10T04:50:42.567Z,3.77
2019-06-10T04:55:43.090Z,3.63
2019-06-10T05:00:46.996Z,3.43
2019-06-10T05:05:52.555Z,3.50
2019-06-10T05:10:56.083Z,2.90
2019-06-10T05:15:59.810Z,3.50
2019-06-10T05:21:03.480Z,3.67
2019-06-10T05:26:07.209Z,3.73
2019-06-10T05:31:12.869Z,3.77
2019-06-10T05:36:16.660Z,3.73
2019-06-10T05:41:24.188Z,3.57
2019-06-10T05:46:26.896Z,4.10
2019-06-10T05:51:33.397Z,4.60
2019-06-10T05:56:36.695Z,3.70
2019-06-10T06:01:42.872Z,3.70
2019-06-10T06:06:45.986Z,3.90
2019-06-10T06:11:52.215Z,5.17
2019-06-10T06:16:55.221Z,3.43
2019-06-10T06:21:59.005Z,4.60
2019-06-10T06:27:02.768Z,5.37
2019-06-10T06:32:06.512Z,5.70
2019-06-10T06:37:12.738Z,4.60
2019-06-10T06:42:16.166Z,4.53
2019-06-10T06:47:22.414Z,3.90
2019-06-10T06:52:46.994Z,4.27
2019-06-10T06:57:33.708Z,3.83
2019-06-10T07:02:37.563Z,3.80
2019-06-10T07:07:43.357Z,4.00
2019-06-10T07:12:47.415Z,4.10
2019-06-10T07:17:52.640Z,3.77
2019-06-10T07:22:56.501Z,3.67
2019-06-10T07:28:02.020Z,4.13
2019-06-10T07:33:05.680Z,3.80
2019-06-10T07:38:12.113Z,3.57
2019-06-10T07:43:15.259Z,3.97
2019-06-10T07:48:19.123Z,4.10
2019-06-10T07:53:22.886Z,3.13
2019-06-10T07:58:27.028Z,3.47
2019-06-10T08:03:33.416Z,3.20
2019-06-10T08:08:37.162Z,3.73
2019-06-10T08:13:45.621Z,3.30
2019-06-10T08:19:16.009Z,3.60
2019-06-10T08:23:54.211Z,4.10
2019-06-10T08:34:27.879Z,3.50
2019-06-10T08:39:33.471Z,3.03
2019-06-10T08:44:38.720Z,3.40
2019-06-10T08:49:45.865Z,4.43
2019-06-10T08:54:50.750Z,3.60
2019-06-10T08:59:54.121Z,3.20
2019-06-10T09:05:03.453Z,4.20
2019-06-10T09:10:06.342Z,3.77
2019-06-10T09:15:12.915Z,3.87
2019-06-10T09:20:15.833Z,3.90
2019-06-10T09:25:22.442Z,4.00
2019-06-10T09:30:25.056Z,4.13
2019-06-10T09:35:28.859Z,4.57
2019-06-10T09:41:00.329Z,4.30
2019-06-10T09:45:57.404Z,4.10
2019-06-10T09:51:02.461Z,4.10
2019-06-10T09:56:06.533Z,4.20
2019-06-10T10:01:10.256Z,3.87
2019-06-10T10:06:16.016Z,3.90
2019-06-10T10:11:23.525Z,4.37
2019-06-10T10:16:26.225Z,4.30
2019-06-10T10:21:29.993Z,4.33
2019-06-10T10:26:33.803Z,4.47
2019-06-10T10:31:37.753Z,6.53
2019-06-10T10:36:45.059Z,6.40
2019-06-10T10:41:48.334Z,5.87
2019-06-10T10:46:54.381Z,6.03
2019-06-10T10:51:57.912Z,6.90
2019-06-10T10:57:02.609Z,7.20
2019-06-10T11:02:06.932Z,7.37
2019-06-10T11:07:12.834Z,5.77
2019-06-10T11:12:16.265Z,6.47
2019-06-10T11:17:22.186Z,6.13
2019-06-10T11:22:25.780Z,6.87
2019-06-10T11:27:30.897Z,7.03
2019-06-10T11:32:35.234Z,8.23
2019-06-10T11:37:39.046Z,6.77
2019-06-10T11:42:43.667Z,6.80
2019-06-10T11:47:49.295Z,7.30
2019-06-10T11:52:57.062Z,8.07
2019-06-10T11:57:59.354Z,8.20
2019-06-10T12:03:03.659Z,7.93
2019-06-10T12:08:07.661Z,9.03
2019-06-10T12:13:13.355Z,10.57
2019-06-10T12:18:16.984Z,12.00
2019-06-10T12:23:22.138Z,13.90
2019-06-10T12:28:26.224Z,14.67
2019-06-10T12:33:33.328Z,13.77
2019-06-10T12:38:35.444Z,10.27
2019-06-10T12:43:39.942Z,10.80
2019-06-10T12:48:43.676Z,8.07
2019-06-10T12:53:47.365Z,8.73
2019-06-10T12:58:54.101Z,10.20
2019-06-10T13:03:57.563Z,16.20
2019-06-10T13:09:03.678Z,13.30
2019-06-10T13:14:09.551Z,12.00
2019-06-10T13:19:13.480Z,11.70
2019-06-10T13:24:17.388Z,9.33
2019-06-10T13:29:25.036Z,8.50
2019-06-10T13:34:29.089Z,8.93
2019-06-10T13:39:33.017Z,8.30
2019-06-10T13:44:36.777Z,7.63
2019-06-10T13:49:42.676Z,7.23
2019-06-10T13:54:46.196Z,7.17
2019-06-10T13:59:52.025Z,7.17
2019-06-10T14:04:55.974Z,7.63
2019-06-10T14:10:02.968Z,7.60
2019-06-10T14:15:08.052Z,7.73
2019-06-10T14:20:15.341Z,7.00
2019-06-10T14:25:17.284Z,8.07
2019-06-10T14:30:23.031Z,7.60
2019-06-10T14:35:27.581Z,8.47
2019-06-10T14:40:32.442Z,7.77
2019-06-10T14:45:36.597Z,9.00
2019-06-10T14:50:40.386Z,8.93
2019-06-10T14:55:44.239Z,8.57
2019-06-10T15:00:48.063Z,9.83
2019-06-10T15:11:55.121Z,9.47
2019-06-10T15:16:59.135Z,9.40
2019-06-10T15:22:06.060Z,10.20
2019-06-10T15:27:22.007Z,9.43
2019-06-10T15:32:33.471Z,8.93
2019-06-10T15:37:24.256Z,8.80
2019-06-10T15:42:28.387Z,8.97
2019-06-10T15:47:32.472Z,9.20
2019-06-10T15:52:36.389Z,9.87
2019-06-10T15:57:43.738Z,9.13
2019-06-10T16:02:45.900Z,9.33
2019-06-10T16:07:49.672Z,8.13
2019-06-10T16:12:53.648Z,9.60
2019-06-10T16:17:58.632Z,8.40
2019-06-10T16:23:03.038Z,9.53
2019-06-10T16:28:07.006Z,9.03
2019-06-10T16:33:13.101Z,9.63
2019-06-10T16:38:16.986Z,8.73
2019-06-10T16:43:24.057Z,8.97
2019-06-10T16:48:26.620Z,9.20
2019-06-10T16:53:32.334Z,9.83
2019-06-10T16:58:36.136Z,9.23
2019-06-10T17:03:42.308Z,8.50
2019-06-10T17:08:45.409Z,8.20
2019-06-10T17:13:49.274Z,8.80
2019-06-10T17:18:52.982Z,8.80
2019-06-10T17:23:56.838Z,9.10
2019-06-10T17:29:02.698Z,8.50
2019-06-10T17:34:06.143Z,8.17
2019-06-10T17:39:12.367Z,10.20
2019-06-10T17:44:15.775Z,8.57
2019-06-10T17:49:22.516Z,10.27
2019-06-10T17:54:25.646Z,8.33
2019-06-10T17:59:31.430Z,10.07
2019-06-10T18:04:55.383Z,8.77
2019-06-10T18:09:59.272Z,9.20
2019-06-10T18:15:04.279Z,8.90
2019-06-10T18:20:09.174Z,8.97
2019-06-10T18:25:13.202Z,9.03
2019-06-10T18:30:16.999Z,8.90
2019-06-10T18:35:22.420Z,9.57
2019-06-10T18:40:27.454Z,9.73
2019-06-10T18:45:36.008Z,10.30
2019-06-10T18:50:39.580Z,10.60
2019-06-10T18:55:43.764Z,10.67
2019-06-10T19:00:59.826Z,10.37
2019-06-10T19:05:53.248Z,9.97
2019-06-10T19:10:57.617Z,10.57
2019-06-10T19:16:02.339Z,10.03
2019-06-10T19:21:08.840Z,10.57
2019-06-10T19:26:13.410Z,11.00
2019-06-10T19:31:17.417Z,10.80
2019-06-10T19:36:23.165Z,10.60
2019-06-10T19:41:27.138Z,10.63
2019-06-10T19:46:33.752Z,9.40
2019-06-10T19:51:37.391Z,11.07
2019-06-10T19:56:41.677Z,10.27
2019-06-10T20:01:48.251Z,10.53
2019-06-10T20:06:53.645Z,10.67
2019-06-10T20:11:56.585Z,9.87
2019-06-10T20:17:02.939Z,10.90
2019-06-10T20:22:05.857Z,11.30
2019-06-10T20:27:10.169Z,10.30
2019-06-10T20:32:14.286Z,11.10
2019-06-10T20:37:18.072Z,10.43
2019-06-10T20:42:23.264Z,9.77
2019-06-10T20:47:27.296Z,10.00
2019-06-10T20:52:32.608Z,9.10
2019-06-10T20:57:50.074Z,9.83
2019-06-10T21:02:45.853Z,8.80
2019-06-10T21:07:51.759Z,9.80
2019-06-10T21:12:55.090Z,9.40
2019-06-10T21:17:58.897Z,10.10
2019-06-10T21:23:03.282Z,12.17
2019-06-10T21:28:07.800Z,12.57
2019-06-10T21:33:13.026Z,11.50
2019-06-10T21:38:16.888Z,12.23
2019-06-10T21:43:22.367Z,13.20
2019-06-10T21:48:26.272Z,15.47
2019-06-10T21:53:30.114Z,13.60
2019-06-10T21:58:33.900Z,14.17
2019-06-10T22:03:37.757Z,15.00
2019-06-10T22:08:44.217Z,14.60
2019-06-10T22:13:48.545Z,12.90
2019-06-10T22:18:52.913Z,14.07
2019-06-10T22:23:57.144Z,14.13
2019-06-10T22:29:01.314Z,13.00
2019-06-10T22:34:05.195Z,11.83
2019-06-10T22:39:08.918Z,12.67
2019-06-10T22:44:12.813Z,12.33
2019-06-10T22:49:16.938Z,13.00
2019-06-10T22:54:21.876Z,12.67
2019-06-10T22:59:25.554Z,13.70
2019-06-10T23:04:29.244Z,12.47
2019-06-10T23:09:32.992Z,12.40
2019-06-10T23:14:36.784Z,12.80
2019-06-10T23:19:42.788Z,12.43
2019-06-10T23:24:46.084Z,12.00
2019-06-10T23:29:52.741Z,12.30
2019-06-10T23:34:58.248Z,11.90
2019-06-10T23:40:04.022Z,12.43
2019-06-10T23:45:06.543Z,12.33
2019-06-10T23:50:12.773Z,12.07
2019-06-10T23:55:15.759Z,12.37
